Tiempo atmosférico en la estación meteorológica de VilagarcÍa de Arousa, Pontevedra (32 m.)



Fecha
DESCASC
Temp. máxima en grados centígrados (hora)
DESCASC
Temp. mínima en grados centígrados (hora)
DESCASC
Temp. media en grados centígrados
DESCASC
Racha de viento máxima en m/sg (hora)
DESCASC
Velocidad máxima media en intervalos de 10 minutos(hora)
DESCASC
Precipitaciones diarias en mm
DESCASC
Precipitaciones de 00:00 a 06:00 en mm
DESCASC
Precipitaciones de 06:00 a 12:00 en mm
DESCASC
Precipitaciones de 12:00 a 18:00 en mm
DESCASC
Precipitaciones de 18:00 a 24:00 en mm
DESCASC
20-09-2020 20.9 (16:20) 16.9 (08:40) 18.9 7.22 (17:50) 4.44 (16:00) 4.4 0 4.4 0 0
19-09-2020 22.6 (15:50) 17.4 (08:20) 20 7.78 (13:50) 4.44 (14:30) 0.8 0 0.8 0 0
17-09-2020 24.8 (15:30) 15.7 (00:00) 20.2 11.39 (17:00) 7.22 (17:00) 23.2 0 0.8 19.2 3.2
16-09-2020 26.4 (16:20) 14.7 (07:20) 20.5 5.83 (19:40) 4.17 (19:40) 0 0 0 0 0
15-09-2020 23.1 (14:50) 16.7 (00:00) 19.9 10.28 (15:00) 5.83 (15:00) 0.6 0 0.6 0 0
14-09-2020 23.6 (15:40) 17.9 (00:00) 20.8 7.5 (19:10) 4.17 (16:20) 0.6 0.2 0.4 0 0
13-09-2020 28.7 (13:30) 20.6 (00:00) 24.7 6.67 (12:40) 3.89 (12:30) 0 0 0 0 0
12-09-2020 35.3 (17:30) 16.8 (08:10) 26 4.17 (16:30) 2.78 (16:40) 0 0 0 0 0
11-09-2020 29 (15:50) 15.9 (00:00) 22.4 6.67 (17:30) 4.44 (17:10) 0 0 0 0 0
10-09-2020 29.6 (16:30) 15.1 (00:00) 22.4 6.39 (18:20) 4.17 (18:30) 0 0 0 0 0
09-09-2020 30.3 (16:20) 15.5 (07:50) 22.9 6.94 (17:20) 4.17 (17:30) 0 0 0 0 0
08-09-2020 29.9 (17:00) 15.6 (00:00) 22.8 6.11 (19:30) 3.89 (19:00) 0 0 0 0 0
07-09-2020 28.3 (17:20) 16.3 (05:20) 22.3 13.89 (00:20) 7.22 (08:30) 0 0 0 0 0
06-09-2020 26.2 (16:00) 18 (00:00) 22.1 14.72 (13:30) 7.78 (12:50) 0 0 0 0 0
05-09-2020 26.7 (16:40) 18.6 (00:00) 22.7 13.33 (12:10) 7.5 (13:40) 0 0 0 0 0
04-09-2020 24.9 (14:50) 15.7 (00:00) 20.3 8.61 (15:40) 6.11 (15:50) 0 0 0 0 0
03-09-2020 30.7 (18:10) 15.1 (00:00) 22.9 4.44 (08:10) 3.06 (17:20) 0 0 0 0 0
02-09-2020 28.4 (18:00) 15.3 (00:00) 21.8 9.72 (08:10) 4.72 (06:30) 0 0 0 0 0
01-09-2020 26.3 (17:20) 13.6 (00:00) 19.9 9.17 (20:10) 5.56 (23:30) 0 0 0 0 0
31-08-2020 23.4 (17:00) 10.9 (00:00) 17.1 5.28 (16:00) 3.61 (13:10) 0 0 0 0 0
30-08-2020 22.9 (17:20) 11.7 (00:00) 17.3 9.72 (18:50) 5.28 (18:50) 0 0 0 0 0
29-08-2020 21.6 (15:40) 13.4 (00:00) 17.5 11.94 (15:50) 6.67 (15:50) 1.4 1.2 0 0.2 0
28-08-2020 22.5 (17:40) 14.2 (00:00) 18.3 11.39 (17:50) 6.67 (17:50) 0 0 0 0 0
27-08-2020 23.7 (15:40) 19.7 (00:00) 21.7 6.94 (16:00) 4.17 (15:30) 0.2 0 0 0 0.2
26-08-2020 26.4 (14:00) 17.9 (00:00) 22.1 8.89 (19:10) 6.11 (19:10) 0 0 0 0 0
25-08-2020 24.5 (18:40) 15.5 (00:00) 20 6.11 (15:40) 4.17 (15:40) 0 0 0 0 0
24-08-2020 29.4 (16:50) 16.4 (08:00) 22.9 7.78 (06:50) 4.44 (05:30) 0 0 0 0 0
23-08-2020 29.1 (18:10) 14.6 (00:00) 21.9 8.33 (20:20) 4.72 (20:00) 0 0 0 0 0
22-08-2020 24.3 (19:10) 15 (00:00) 19.6 8.06 (17:50) 4.72 (16:30) 0 0 0 0 0

Gráficas

Temp. máximas Temp. mínimas Temp. medias Precipitaciones Rachas de viento máximas Velocidades máximas media en intervalos de 10 minutos

Datos horarios

Fecha y hora oficial Temperatura (ºC) Velocidad del viento (km/h) Dirección del viento Racha (km/h) Dirección de racha Precipitación (mm) Presión (hPa) Tendencia (hPa) Humedad (%)
2020-09-20 23:00:00 17.8 2 Sudeste 9 Sudoeste 0 -- -- 96
2020-09-20 22:00:00 18 3 Sudoeste 10 Sudoeste 0 -- -- 95
2020-09-20 21:00:00 17.9 4 Oeste 17 Sudoeste 0 -- -- 97
2020-09-20 20:00:00 18.1 10 Sudoeste 20 Sudoeste 0 -- -- 97
2020-09-20 19:00:00 18.5 11 Sudoeste 23 Sudoeste 0 -- -- 95
2020-09-20 18:00:00 19.7 13 Sudoeste 26 Sudoeste 0 -- -- 87
2020-09-20 17:00:00 20.7 12 Oeste 25 Sudoeste 0 -- -- 81
2020-09-20 16:00:00 20.6 16 Sudoeste 25 Sudoeste 0 -- -- 82
2020-09-20 15:00:00 19.5 7 Oeste 16 Sudoeste 0 -- -- 90
2020-09-20 14:00:00 19.7 9 Oeste 16 Sudoeste 0 -- -- 92
2020-09-20 13:00:00 19.3 9 Noroeste 12 Noroeste 0 -- -- 91
2020-09-20 12:00:00 19.1 5 Oeste 9 Oeste 0 -- -- 93
2020-09-20 11:00:00 18.7 5 Noroeste 7 Noroeste 0 -- -- 97
2020-09-20 10:00:00 17.5 2 Este 6 Sudeste 0.6 -- -- 99
2020-09-20 09:00:00 16.9 5 Sudeste 9 Este 3.8 -- -- 98
2020-09-20 08:00:00 17.2 8 Sudeste 14 Sudeste 0 -- -- 94
2020-09-20 07:00:00 17.5 4 Sudeste 9 Sudeste 0 -- -- 93
2020-09-20 06:00:00 17.3 6 Este 9 Este 0 -- -- 94
2020-09-20 05:00:00 17.3 5 Sudeste 9 Sudeste 0 -- -- 94
2020-09-20 04:00:00 17.5 0 Calma 5 Sur 0 -- -- 94
2020-09-20 03:00:00 17.9 0 Calma 7 Este 0 -- -- 92
2020-09-20 02:00:00 18.5 4 Sur 6 Oeste 0 -- -- 91
2020-09-20 01:00:00 18.6 5 Oeste 7 Noroeste 0 -- -- 91
2020-09-20 00:00:00 18.4 4 Sudeste 7 Este 0 -- -- 92
2020-09-19 23:00:00 18.4 2 Sudeste 7 Este 0 -- -- 89
2020-09-19 22:00:00 18.1 4 Este 7 Sur 0 -- -- 91
2020-09-19 21:00:00 18.7 4 Sur 6 Sur 0 -- -- 87
2020-09-19 20:00:00 19.4 6 Noroeste 14 Noroeste 0 -- -- 83
2020-09-19 19:00:00 20.6 12 Oeste 16 Oeste 0 -- -- 78
2020-09-19 18:00:00 21.3 11 Oeste 19 Oeste 0 -- -- 75
2020-09-19 17:00:00 21.1 12 Sudoeste 23 Sudoeste 0 -- -- 78
2020-09-19 16:00:00 22.5 13 Sudoeste 26 Sudoeste 0 -- -- 69
2020-09-19 15:00:00 22 12 Sudoeste 26 Sudoeste 0 -- -- 74
2020-09-19 14:00:00 20.7 14 Oeste 28 Sudoeste 0 -- -- 79
2020-09-19 13:00:00 20.2 10 Sudoeste 23 Sudoeste 0 -- -- 84
2020-09-19 12:00:00 19.1 9 Sudoeste 18 Sudoeste 0 -- -- 90
2020-09-19 11:00:00 19.1 5 Sudoeste 15 Sur 0 -- -- 93
2020-09-19 10:00:00 18 6 Sur 14 Sudoeste 0.2 -- -- 96
2020-09-19 09:00:00 17.5 3 Sudoeste 8 Sudoeste 0.2 -- -- 98
2020-09-19 08:00:00 17.5 0 Calma 10 Sudoeste 0 -- -- 96
2020-09-19 07:00:00 17.6 7 Sudoeste 15 Sudoeste 0.4 -- -- 95
2020-09-19 06:00:00 17.9 6 Sudoeste 12 Sur 0 -- -- 95
2020-09-19 05:00:00 17.8 0 Calma 8 Oeste 0 -- -- 94
2020-09-19 04:00:00 17.7 4 Sudeste 8 Sudoeste 0 -- -- 93
2020-09-19 03:00:00 17.8 4 Sudeste 7 Oeste 0 -- -- 92
2020-09-19 02:00:00 18.2 3 Oeste 7 Norte 0 -- -- 92
2020-09-19 01:00:00 18.5 5 Noroeste 11 Norte 0 -- -- 90
2020-09-19 00:00:00 18.9 7 Norte 18 Nordeste 0 -- -- 88
2020-09-18 23:00:00 19.4 12 Nordeste 22 Este 0 -- -- 86
2020-09-18 22:00:00 19.4 6 Nordeste 23 Sudeste 1.2 -- -- 88
2020-09-18 21:00:00 21.6 16 Sudeste 30 Sudeste 0 -- -- 74
2020-09-18 20:00:00 22.5 4 Norte 14 Norte 0 -- -- 66
2020-09-18 19:00:00 23.4 6 Norte 17 Norte 0 -- -- 63
2020-09-18 18:00:00 24 8 Norte 14 Noroeste 0 -- -- 61
2020-09-18 17:00:00 23.5 10 Oeste 14 Noroeste 0 -- -- 61
2020-09-18 16:00:00 23 7 Noroeste 12 Noroeste 0 -- -- 66
2020-09-18 15:00:00 22.1 9 Noroeste 15 Noroeste 0 -- -- 73
2020-09-18 14:00:00 20.9 9 Noroeste 14 Noroeste 0 -- -- 74
2020-09-18 13:00:00 21 9 Noroeste 13 Noroeste 0 -- -- 79
2020-09-18 12:00:00 19.9 4 Norte 7 Norte 0 -- -- 89
2020-09-18 11:00:00 18.9 3 Norte 6 Nordeste 0 -- -- 94
2020-09-18 10:00:00 17.9 3 Este 5 Este 0 -- -- 99
2020-09-18 09:00:00 15.4 4 Sur 6 Sur 0 -- -- 100
2020-09-18 08:00:00 15.2 4 Este 6 Sur 0 -- -- 99
2020-09-18 07:00:00 15.8 5 Sur 8 Sur 0 -- -- 99
2020-09-18 06:00:00 16.6 4 Norte 8 Este 0 -- -- 98
2020-09-18 05:00:00 17.1 4 Este 9 Sur 0 -- -- 98
2020-09-18 04:00:00 17.2 5 Este 13 Este 0 -- -- 99
2020-09-18 03:00:00 17.4 3 Sudeste 18 Sudoeste 0.2 -- -- 97
2020-09-18 02:00:00 17.7 7 Sudoeste 13 Sudoeste 0.2 -- -- 96
2020-09-18 01:00:00 17.7 0 Calma 7 Norte 0 -- -- 97
2020-09-18 00:00:00 17.7 2 Este 13 Sudeste 0 -- -- 96
2020-09-17 23:00:00 17.7 4 Norte 13 Sur 0.2 -- -- 98
2020-09-17 22:00:00 17.8 6 Sudeste 13 Sudeste 0.2 -- -- 98
2020-09-17 21:00:00 17.8 0 Calma 13 Este 1.4 -- -- 99
2020-09-17 20:00:00 17.9 8 Sudeste 13 Sudeste 1 -- -- 98
2020-09-17 19:00:00 18 7 Este 12 Este 0.4 -- -- 98
2020-09-17 18:00:00 18.4 5 Nordeste 26 Sudoeste 7.4 -- -- 98
2020-09-17 17:00:00 19.3 26 Sudoeste 41 Sudoeste 11.8 -- -- 89
2020-09-17 16:00:00 24.5 8 Oeste 15 Norte 0 -- -- 61
2020-09-17 15:00:00 23.9 8 Norte 14 Norte 0 -- -- 64
2020-09-17 14:00:00 21.8 8 Noroeste 13 Oeste 0 -- -- 78
2020-09-17 13:00:00 21.1 9 Noroeste 13 Oeste 0 -- -- 84
2020-09-17 12:00:00 20.6 6 Oeste 13 Noroeste 0 -- -- 84
2020-09-17 11:00:00 20.1 6 Sur 13 Sudoeste 0 -- -- 90
2020-09-17 10:00:00 18.1 2 Este 10 Oeste 0.2 -- -- 95
2020-09-17 09:00:00 17.6 5 Este 21 Sudoeste 0.6 -- -- 92
2020-09-17 08:00:00 17.4 5 Oeste 14 Sudoeste 0 -- -- 91
2020-09-17 07:00:00 16.8 6 Sudeste 11 Este 0 -- -- 93
2020-09-17 06:00:00 16.3 3 Sur 9 Este 0 -- -- 93
2020-09-17 05:00:00 16.2 4 Oeste 6 Oeste 0 -- -- 93
2020-09-17 04:00:00 16.3 3 Sudeste 7 Nordeste 0 -- -- 93
2020-09-17 03:00:00 16.5 6 Este 7 Este 0 -- -- 93
2020-09-17 02:00:00 17.4 0 Calma 5 Este 0 -- -- 90
2020-09-17 01:00:00 18.2 0 Calma 5 Este 0 -- -- 86
2020-09-17 00:00:00 18.7 3 Sudoeste 12 Oeste 0 -- -- 83
2020-09-16 23:00:00 19.5 6 Este 17 Sudeste 0 -- -- 79
2020-09-16 22:00:00 19.6 8 Sudeste 17 Sudeste 0 -- -- 79
2020-09-16 21:00:00 21.8 0 Calma 12 Sudoeste 0 -- -- 74
2020-09-16 20:00:00 23.1 4 Sur 21 Sudoeste 0 -- -- 66
2020-09-16 19:00:00 24.9 7 Sudoeste 12 Oeste 0 -- -- 64
2020-09-16 18:00:00 25.8 5 Oeste 12 Oeste 0 -- -- 58
2020-09-16 17:00:00 25.6 6 Oeste 14 Noroeste 0 -- -- 55
2020-09-16 16:00:00 25.4 8 Noroeste 14 Oeste 0 -- -- 56
2020-09-16 15:00:00 24.5 8 Noroeste 15 Oeste 0 -- -- 65
2020-09-16 14:00:00 23.8 7 Norte 15 Norte 0 -- -- 67
2020-09-16 13:00:00 23.2 9 Norte 14 Noroeste 0 -- -- 71
2020-09-16 12:00:00 21.3 3 Este 7 Oeste 0 -- -- 79
2020-09-16 11:00:00 20.1 2 Norte 8 Este 0 -- -- 80
2020-09-16 10:00:00 17.3 4 Este 7 Sudeste 0 -- -- 93
2020-09-16 09:00:00 15.9 6 Oeste 9 Oeste 0 -- -- 95
2020-09-16 08:00:00 15.1 3 Sudeste 6 Este 0 -- -- 96
2020-09-16 07:00:00 15.1 0 Calma 5 Este 0 -- -- 96
2020-09-16 06:00:00 15.2 3 Este 8 Este 0 -- -- 95
2020-09-16 05:00:00 15.5 4 Sudeste 6 Sudeste 0 -- -- 95
2020-09-16 04:00:00 15.6 3 Este 6 Oeste 0 -- -- 94
2020-09-16 03:00:00 16 0 Calma 6 Este 0 -- -- 94
2020-09-16 02:00:00 16.1 4 Este 6 Sudeste 0 -- -- 94
2020-09-16 01:00:00 16.6 4 Sudeste 7 Sur 0 -- -- 93
2020-09-16 00:00:00 17.2 5 Sur 6 Sur 0 -- -- 90
2020-09-15 23:00:00 17.9 4 Sur 8 Este 0 -- -- 85
2020-09-15 22:00:00 19 5 Este 15 Sudoeste 0 -- -- 84
2020-09-15 21:00:00 20.7 5 Sur 14 Sudoeste 0 -- -- 78
2020-09-15 20:00:00 22 10 Sudoeste 27 Sudoeste 0 -- -- 76
2020-09-15 19:00:00 22.9 14 Sudoeste 28 Oeste 0 -- -- 72
2020-09-15 18:00:00 23.1 11 Oeste 29 Sudoeste 0 -- -- 75
2020-09-15 17:00:00 22.4 16 Sudoeste 34 Sudoeste 0 -- -- 79
2020-09-15 16:00:00 22.4 18 Sudoeste 36 Sudoeste 0 -- -- 79
2020-09-15 15:00:00 23 21 Sudoeste 37 Sudoeste 0 -- -- 75
2020-09-15 14:00:00 22.8 14 Sudoeste 28 Sudoeste 0 -- -- 74
2020-09-15 13:00:00 21.1 10 Noroeste 17 Noroeste 0 -- -- 84
2020-09-15 12:00:00 20.8 7 Noroeste 10 Noroeste 0 -- -- 86
2020-09-15 11:00:00 19.6 9 Sudeste 13 Sudeste 0 -- -- 90
2020-09-15 10:00:00 18.5 5 Este 7 Nordeste 0.6 -- -- 95
2020-09-15 09:00:00 18.9 6 Oeste 11 Sudoeste 0 -- -- 87
2020-09-15 08:00:00 18.3 5 Este 10 Este 0 -- -- 86
2020-09-15 07:00:00 18.8 4 Este 10 Este 0 -- -- 85
2020-09-15 06:00:00 19.2 0 Calma 12 Sudeste 0 -- -- 83
2020-09-15 05:00:00 19.2 6 Sudeste 11 Sur 0 -- -- 83
2020-09-15 04:00:00 18.5 8 Sudeste 15 Sudeste 0 -- -- 86
2020-09-15 03:00:00 17.1 7 Sudeste 11 Sudeste 0 -- -- 93
2020-09-15 02:00:00 17.1 3 Sudeste 5 Sudeste 0 -- -- 93
2020-09-15 01:00:00 17.4 3 Este 7 Sudeste 0 -- -- 93
2020-09-15 00:00:00 17.9 4 Este 5 Este 0 -- -- 91
2020-09-14 23:00:00 19.1 3 Oeste 10 Noroeste 0 -- -- 90
2020-09-14 22:00:00 19.9 5 Sur 8 Sudoeste 0 -- -- 83
2020-09-14 21:00:00 20.8 4 Sudoeste 22 Sudoeste 0 -- -- 81
2020-09-14 20:00:00 22.2 9 Oeste 27 Sudoeste 0 -- -- 75
2020-09-14 19:00:00 22.9 12 Sudoeste 20 Sudoeste 0 -- -- 74
2020-09-14 18:00:00 23 13 Noroeste 20 Noroeste 0 -- -- 76
2020-09-14 17:00:00 22.4 14 Noroeste 24 Noroeste 0 -- -- 79
2020-09-14 16:00:00 22.8 13 Oeste 24 Oeste 0 -- -- 77
2020-09-14 15:00:00 23.1 13 Oeste 24 Sudoeste 0 -- -- 79
2020-09-14 14:00:00 21.6 8 Noroeste 19 Sudoeste 0 -- -- 85
2020-09-14 13:00:00 21.9 9 Sudoeste 16 Sudoeste 0 -- -- 85
2020-09-14 12:00:00 19.8 5 Noroeste 9 Oeste 0 -- -- 96
2020-09-14 11:00:00 19.7 3 Noroeste 6 Sudoeste 0.2 -- -- 97
2020-09-14 10:00:00 19.3 3 Noroeste 9 Noroeste 0 -- -- 97
2020-09-14 09:00:00 20 4 Noroeste 9 Sudoeste 0 -- -- 95
2020-09-14 08:00:00 19.9 6 Sudoeste 11 Sudoeste 0 -- -- 96
2020-09-14 07:00:00 20 4 Sudoeste 17 Sudoeste 0.2 -- -- 96
2020-09-14 06:00:00 19.7 9 Sudoeste 17 Oeste 0 -- -- 94
2020-09-14 05:00:00 19.6 4 Oeste 8 Oeste 0.2 -- -- 90
2020-09-14 04:00:00 19.9 2 Oeste 5 Sudoeste 0 -- -- 85
2020-09-14 03:00:00 20.3 3 Sudoeste 6 Oeste 0 -- -- 83
2020-09-14 02:00:00 20.9 6 Oeste 10 Oeste 0 -- -- 75
2020-09-14 01:00:00 21.1 5 Sudeste 8 Sudeste 0 -- -- 68
2020-09-14 00:00:00 21.5 4 Este 12 Oeste 0 -- -- 69
2020-09-13 23:00:00 22.2 7 Oeste 11 Oeste 0 -- -- 65
2020-09-13 22:00:00 22.6 4 Sudeste 8 Este 0 -- -- 61
2020-09-13 21:00:00 24.7 5 Sudoeste 13 Sudoeste 0 -- -- 49
2020-09-13 20:00:00 25.9 6 Sudoeste 11 Sudoeste 0 -- -- 54
2020-09-13 19:00:00 26.3 0 Calma 7 Nordeste 0 -- -- 49
2020-09-13 18:00:00 26.5 6 Norte 9 Nordeste 0 -- -- 50
2020-09-13 17:00:00 26.7 9 Noroeste 13 Noroeste 0 -- -- 55
2020-09-13 16:00:00 27.5 9 Noroeste 23 Sudoeste 0 -- -- 56
2020-09-13 15:00:00 26.5 11 Noroeste 17 Oeste 0 -- -- 59
2020-09-13 14:00:00 28.6 10 Noroeste 14 Noroeste 0 -- -- 45
2020-09-13 13:00:00 27.7 10 Oeste 24 Oeste 0 -- -- 45
2020-09-13 12:00:00 27.5 10 Sudoeste 19 Sudoeste 0 -- -- 53
2020-09-13 11:00:00 24.8 4 Noroeste 7 Oeste 0 -- -- 56
2020-09-13 10:00:00 22.8 0 Calma 6 Oeste 0 -- -- 64
2020-09-13 09:00:00 20.9 5 Noroeste 8 Noroeste 0 -- -- 71
2020-09-13 08:00:00 20.9 6 Noroeste 9 Norte 0 -- -- 70
2020-09-13 07:00:00 21.3 4 Noroeste 7 Norte 0 -- -- 69
2020-09-13 06:00:00 22 0 Calma 6 Sudeste 0 -- -- 66
2020-09-13 05:00:00 22.5 0 Calma 10 Este 0 -- -- 65
2020-09-13 04:00:00 22.5 6 Sudeste 10 Sudeste 0 -- -- 67
2020-09-13 03:00:00 23.7 3 Norte 6 Norte 0 -- -- 61
2020-09-13 02:00:00 24 4 Noroeste 6 Noroeste 0 -- -- 63
2020-09-13 01:00:00 24.2 2 Sur 6 Norte 0 -- -- 65
2020-09-13 00:00:00 26.2 3 Noroeste 8 Oeste 0 -- -- 61
2020-09-12 23:00:00 26.6 0 Calma 9 Sudeste 0 -- -- 62
2020-09-12 22:00:00 28.3 3 Nordeste 13 Norte 0 -- -- 55
2020-09-12 21:00:00 30.3 4 Norte 10 Nordeste 0 -- -- 47
2020-09-12 20:00:00 31.7 0 Calma 10 Oeste 0 -- -- 42
2020-09-12 19:00:00 34.3 7 Oeste 10 Oeste 0 -- -- 32
2020-09-12 18:00:00 35.3 6 Noroeste 13 Noroeste 0 -- -- 30
2020-09-12 17:00:00 34.8 9 Noroeste 15 Noroeste 0 -- -- 31
2020-09-12 16:00:00 33.8 9 Norte 14 Norte 0 -- -- 39
2020-09-12 15:00:00 32.1 8 Norte 14 Norte 0 -- -- 47
2020-09-12 14:00:00 29.4 7 Norte 13 Norte 0 -- -- 57
2020-09-12 13:00:00 27.3 7 Norte 13 Nordeste 0 -- -- 62
2020-09-12 12:00:00 25 8 Norte 12 Norte 0 -- -- 66
2020-09-12 11:00:00 23.2 4 Norte 7 Norte 0 -- -- 70
2020-09-12 10:00:00 21.2 2 Este 5 Sudeste 0 -- -- 78
2020-09-12 09:00:00 18.2 0 Calma 8 Sudeste 0 -- -- 89
2020-09-12 08:00:00 17 5 Este 10 Este 0 -- -- 90
2020-09-12 07:00:00 17.8 6 Sudeste 11 Sudeste 0 -- -- 90
2020-09-12 06:00:00 18.3 4 Este 8 Sudeste 0 -- -- 88
2020-09-12 05:00:00 18.6 5 Este 10 Sudeste 0 -- -- 86
2020-09-12 04:00:00 18.8 5 Sudeste 9 Sudeste 0 -- -- 88
2020-09-12 03:00:00 19.1 4 Sudeste 7 Sudeste 0 -- -- 87
2020-09-12 02:00:00 18.5 4 Este 5 Este 0 -- -- 84
2020-09-12 01:00:00 19.1 0 Calma 5 Este 0 -- -- 80
2020-09-12 00:00:00 19.4 4 Sudeste 5 Sur 0 -- -- 78
2020-09-11 23:00:00 20.2 4 Oeste 6 Oeste 0 -- -- 75
2020-09-11 22:00:00 21.3 0 Calma 5 Norte 0 -- -- 71
2020-09-11 21:00:00 22.3 4 Nordeste 5 Nordeste 0 -- -- 66
2020-09-11 20:00:00 24.9 4 Nordeste 10 Sudoeste 0 -- -- 58
2020-09-11 19:00:00 27.9 6 Sudoeste 22 Sudoeste 0 -- -- 50
2020-09-11 18:00:00 28.3 10 Sudoeste 24 Sudoeste 0 -- -- 49
2020-09-11 17:00:00 28 15 Sudoeste 22 Sudoeste 0 -- -- 49
2020-09-11 16:00:00 28.6 11 Oeste 16 Oeste 0 -- -- 47
2020-09-11 15:00:00 28.6 9 Noroeste 13 Oeste 0 -- -- 48
2020-09-11 14:00:00 27.4 9 Noroeste 13 Oeste 0 -- -- 55
2020-09-11 13:00:00 25.4 6 Noroeste 10 Noroeste 0 -- -- 62
2020-09-11 12:00:00 23.6 5 Noroeste 9 Sudeste 0 -- -- 68
2020-09-11 11:00:00 22.3 6 Sudeste 9 Sudeste 0 -- -- 72
2020-09-11 10:00:00 19.7 4 Este 12 Este 0 -- -- 81
2020-09-11 09:00:00 16.6 9 Sudeste 14 Sudeste 0 -- -- 92
2020-09-11 08:00:00 16.4 6 Este 12 Sudeste 0 -- -- 91
2020-09-11 07:00:00 16.3 7 Sudeste 11 Sudeste 0 -- -- 91
2020-09-11 06:00:00 16.7 8 Sudeste 10 Sudeste 0 -- -- 88
2020-09-11 05:00:00 17.9 4 Sudeste 8 Sudeste 0 -- -- 83
2020-09-11 04:00:00 18 4 Sudeste 11 Sudeste 0 -- -- 83
2020-09-11 03:00:00 18.3 6 Sudeste 10 Sudeste 0 -- -- 84
2020-09-11 02:00:00 19.5 4 Sur 8 Sudeste 0 -- -- 80
2020-09-11 01:00:00 19.6 3 Sur 6 Sur 0 -- -- 81
2020-09-11 00:00:00 20 4 Sur 6 Noroeste 0 -- -- 77
2020-09-10 23:00:00 21.5 0 Calma 7 Este 0 -- -- 70
2020-09-10 22:00:00 22.2 3 Sudeste 5 Sudeste 0 -- -- 68
2020-09-10 21:00:00 23.7 3 Sur 9 Oeste 0 -- -- 65
2020-09-10 20:00:00 27.4 4 Sur 15 Sudoeste 0 -- -- 52
2020-09-10 19:00:00 27.7 11 Sudoeste 23 Sudoeste 0 -- -- 49
2020-09-10 18:00:00 28.6 12 Sudoeste 21 Sudoeste 0 -- -- 44
2020-09-10 17:00:00 29.6 8 Oeste 15 Sudoeste 0 -- -- 40
2020-09-10 16:00:00 28.7 9 Oeste 17 Sudoeste 0 -- -- 44
2020-09-10 15:00:00 27.6 8 Oeste 16 Oeste 0 -- -- 47
2020-09-10 14:00:00 27.3 9 Noroeste 14 Oeste 0 -- -- 52
2020-09-10 13:00:00 25.8 6 Noroeste 11 Norte 0 -- -- 60
2020-09-10 12:00:00 23.7 5 Nordeste 9 Norte 0 -- -- 65
2020-09-10 11:00:00 22.1 4 Este 9 Sudeste 0 -- -- 70
2020-09-10 10:00:00 19.2 5 Sudeste 14 Sudeste 0 -- -- 77
2020-09-10 09:00:00 16.1 6 Este 11 Sudeste 0 -- -- 89
2020-09-10 08:00:00 15.2 4 Este 9 Sudeste 0 -- -- 89
2020-09-10 07:00:00 15.9 4 Sudeste 8 Sudeste 0 -- -- 89
2020-09-10 06:00:00 16.1 3 Este 6 Sudeste 0 -- -- 88
2020-09-10 05:00:00 17.2 5 Sur 8 Sudeste 0 -- -- 84
2020-09-10 04:00:00 17.2 2 Sudeste 6 Sur 0 -- -- 83
2020-09-10 03:00:00 18.2 3 Sudeste 5 Sur 0 -- -- 79
2020-09-10 02:00:00 19.2 3 Nordeste 8 Sudeste 0 -- -- 74
2020-09-10 01:00:00 19.9 5 Sudeste 9 Sudeste 0 -- -- 67
2020-09-10 00:00:00 20.1 3 Sudeste 5 Sudeste 0 -- -- 56
2020-09-09 23:00:00 20.4 5 Sur 7 Sudeste 0 -- -- 58
2020-09-09 22:00:00 22.1 3 Sur 8 Sur 0 -- -- 52
2020-09-09 21:00:00 24.2 5 Sudeste 10 Sur 0 -- -- 50
2020-09-09 20:00:00 27.2 7 Sur 21 Sudoeste 0 -- -- 40
2020-09-09 19:00:00 27.8 13 Sudoeste 24 Sudoeste 0 -- -- 37
2020-09-09 18:00:00 28.4 15 Sudoeste 25 Sudoeste 0 -- -- 34
2020-09-09 17:00:00 29.1 14 Sudoeste 23 Sudoeste 0 -- -- 31
2020-09-09 16:00:00 29.9 12 Oeste 18 Oeste 0 -- -- 32
2020-09-09 15:00:00 29.4 10 Noroeste 16 Oeste 0 -- -- 31
2020-09-09 14:00:00 28.9 7 Norte 12 Noroeste 0 -- -- 40
2020-09-09 13:00:00 26.6 8 Norte 12 Norte 0 -- -- 52
2020-09-09 12:00:00 24.6 5 Norte 9 Norte 0 -- -- 58
2020-09-09 11:00:00 23.2 5 Este 13 Este 0 -- -- 63
2020-09-09 10:00:00 20.1 6 Este 12 Este 0 -- -- 71
2020-09-09 09:00:00 16.7 7 Sudeste 11 Sudeste 0 -- -- 82
2020-09-09 08:00:00 15.6 5 Sudeste 9 Sudeste 0 -- -- 86
2020-09-09 07:00:00 16.1 5 Sudeste 11 Este 0 -- -- 82
2020-09-09 06:00:00 16 6 Este 13 Este 0 -- -- 85
2020-09-09 05:00:00 16.8 6 Sudeste 12 Sudeste 0 -- -- 82
2020-09-09 04:00:00 17 5 Sudeste 10 Este 0 -- -- 83
2020-09-09 03:00:00 17.2 5 Sudeste 10 Sudeste 0 -- -- 83
2020-09-09 02:00:00 17.8 4 Sudeste 7 Nordeste 0 -- -- 78
2020-09-09 01:00:00 18.9 0 Calma 7 Este 0 -- -- 71
2020-09-09 00:00:00 19.3 6 Sudeste 8 Sudeste 0 -- -- 65
2020-09-08 23:00:00 20.1 0 Calma 8 Nordeste 0 -- -- 57
2020-09-08 22:00:00 21.6 2 Nordeste 8 Sur 0 -- -- 52
2020-09-08 21:00:00 24 5 Sur 15 Sudoeste 0 -- -- 43
2020-09-08 20:00:00 26.6 9 Sudoeste 22 Sudoeste 0 -- -- 39
2020-09-08 19:00:00 28.2 14 Sudoeste 20 Sudoeste 0 -- -- 40
2020-09-08 18:00:00 29.4 10 Oeste 18 Oeste 0 -- -- 34
2020-09-08 17:00:00 29.9 9 Noroeste 19 Oeste 0 -- -- 33
2020-09-08 16:00:00 29.1 9 Norte 18 Norte 0 -- -- 31
2020-09-08 15:00:00 28 9 Norte 18 Norte 0 -- -- 41
2020-09-08 14:00:00 26.3 10 Norte 20 Norte 0 -- -- 46
2020-09-08 13:00:00 24.3 12 Norte 17 Norte 0 -- -- 50
2020-09-08 12:00:00 22.6 7 Norte 13 Nordeste 0 -- -- 56
2020-09-08 11:00:00 20.3 6 Norte 10 Norte 0 -- -- 61
2020-09-08 10:00:00 18.3 3 Norte 13 Nordeste 0 -- -- 68
2020-09-08 09:00:00 16 5 Noroeste 8 Noroeste 0 -- -- 77
2020-09-08 08:00:00 15.7 0 Calma 8 Oeste 0 -- -- 78
2020-09-08 07:00:00 16.1 2 Nordeste 12 Nordeste 0 -- -- 79
2020-09-08 06:00:00 16.2 6 Oeste 13 Nordeste 0 -- -- 81
2020-09-08 05:00:00 16.1 7 Nordeste 12 Nordeste 0 -- -- 83
2020-09-08 04:00:00 17.3 8 Nordeste 14 Nordeste 0 -- -- 77
2020-09-08 03:00:00 18.1 4 Noroeste 10 Noroeste 0 -- -- 75
2020-09-08 02:00:00 18.5 5 Norte 17 Norte 0 -- -- 74
2020-09-08 01:00:00 19.1 8 Norte 16 Norte 0 -- -- 71
2020-09-08 00:00:00 19.7 10 Norte 18 Nordeste 0 -- -- 69
2020-09-07 23:00:00 21 9 Este 24 Este 0 -- -- 65
2020-09-07 22:00:00 22.1 6 Nordeste 23 Norte 0 -- -- 62
2020-09-07 21:00:00 24 6 Norte 21 Este 0 -- -- 57
2020-09-07 20:00:00 25.9 10 Nordeste 28 Norte 0 -- -- 53
2020-09-07 19:00:00 27.5 12 Nordeste 36 Este 0 -- -- 47
2020-09-07 18:00:00 28 18 Nordeste 33 Nordeste 0 -- -- 43
2020-09-07 17:00:00 28.1 15 Nordeste 34 Norte 0 -- -- 43
2020-09-07 16:00:00 27.3 17 Nordeste 35 Este 0 -- -- 45
2020-09-07 15:00:00 26.3 18 Nordeste 33 Sudeste 0 -- -- 48
2020-09-07 14:00:00 25 18 Nordeste 37 Nordeste 0 -- -- 52
2020-09-07 13:00:00 23.5 23 Este 34 Nordeste 0 -- -- 53
2020-09-07 12:00:00 21.6 19 Nordeste 33 Nordeste 0 -- -- 59
2020-09-07 11:00:00 20.1 15 Nordeste 32 Nordeste 0 -- -- 64
2020-09-07 10:00:00 18 18 Nordeste 37 Nordeste 0 -- -- 71
2020-09-07 09:00:00 16.8 23 Nordeste 46 Nordeste 0 -- -- 74
2020-09-07 08:00:00 16.7 18 Nordeste 44 Nordeste 0 -- -- 73
2020-09-07 07:00:00 16.5 20 Nordeste 35 Nordeste 0 -- -- 74
2020-09-07 06:00:00 16.5 14 Norte 28 Norte 0 -- -- 74
2020-09-07 05:00:00 16.4 11 Norte 36 Nordeste 0 -- -- 75
2020-09-07 04:00:00 16.7 14 Nordeste 32 Norte 0 -- -- 73
2020-09-07 03:00:00 16.4 15 Nordeste 44 Nordeste 0 -- -- 75
2020-09-07 02:00:00 16.9 22 Nordeste 40 Nordeste 0 -- -- 73
2020-09-07 01:00:00 17.5 19 Nordeste 50 Este 0 -- -- 71
2020-09-07 00:00:00 18 14 Nordeste 36 Nordeste 0 -- -- 68
2020-09-06 23:00:00 19 15 Nordeste 35 Este 0 -- -- 63
2020-09-06 22:00:00 19.8 17 Nordeste 40 Nordeste 0 -- -- 61
2020-09-06 21:00:00 21.3 12 Este 40 Nordeste 0 -- -- 57
2020-09-06 20:00:00 23.3 20 Este 39 Este 0 -- -- 52
2020-09-06 19:00:00 24.6 15 Este 41 Este 0 -- -- 52
2020-09-06 18:00:00 25.5 21 Este 44 Este 0 -- -- 50
2020-09-06 17:00:00 25.9 22 Este 44 Este 0 -- -- 50
2020-09-06 16:00:00 26.2 19 Nordeste 40 Este 0 -- -- 50
2020-09-06 15:00:00 25.4 20 Nordeste 44 Este 0 -- -- 51
2020-09-06 14:00:00 24.4 19 Nordeste 53 Nordeste 0 -- -- 53
2020-09-06 13:00:00 23 24 Nordeste 47 Este 0 -- -- 57
2020-09-06 12:00:00 22 24 Nordeste 48 Nordeste 0 -- -- 60
2020-09-06 11:00:00 20.5 22 Nordeste 45 Nordeste 0 -- -- 65
2020-09-06 10:00:00 19.8 14 Este 39 Este 0 -- -- 69
2020-09-06 09:00:00 18.7 20 Este 43 Este 0 -- -- 73
2020-09-06 08:00:00 18.2 14 Este 41 Este 0 -- -- 75
2020-09-06 07:00:00 18.2 21 Nordeste 46 Nordeste 0 -- -- 75
2020-09-06 06:00:00 18.5 25 Este 49 Sudeste 0 -- -- 75
2020-09-06 05:00:00 18.7 19 Nordeste 46 Este 0 -- -- 74
2020-09-06 04:00:00 19 19 Este 52 Este 0 -- -- 74
2020-09-06 03:00:00 19.1 19 Este 50 Sudeste 0 -- -- 74
2020-09-06 02:00:00 19.3 17 Este 37 Este 0 -- -- 74
2020-09-06 01:00:00 19.5 13 Este 38 Nordeste 0 -- -- 73
2020-09-06 00:00:00 19.5 15 Nordeste 39 Este 0 -- -- 74
2020-09-05 23:00:00 19.7 17 Nordeste 46 Nordeste 0 -- -- 74
2020-09-05 22:00:00 20 9 Nordeste 27 Nordeste 0 -- -- 76
2020-09-05 21:00:00 21 14 Nordeste 32 Nordeste 0 -- -- 73
2020-09-05 20:00:00 22.8 15 Nordeste 37 Nordeste 0 -- -- 68
2020-09-05 19:00:00 25 11 Nordeste 42 Nordeste 0 -- -- 60
2020-09-05 18:00:00 25.9 15 Nordeste 46 Nordeste 0 -- -- 56
2020-09-05 17:00:00 26.6 19 Este 44 Este 0 -- -- 56
2020-09-05 16:00:00 26.2 24 Este 47 Este 0 -- -- 57
2020-09-05 15:00:00 26 18 Nordeste 43 Este 0 -- -- 60
2020-09-05 14:00:00 24.9 23 Nordeste 44 Nordeste 0 -- -- 62
2020-09-05 13:00:00 23.8 27 Nordeste 48 Este 0 -- -- 65
2020-09-05 12:00:00 23.1 19 Este 44 Este 0 -- -- 69
2020-09-05 11:00:00 22.1 16 Nordeste 43 Nordeste 0 -- -- 72
2020-09-05 10:00:00 20.2 13 Norte 32 Nordeste 0 -- -- 79
2020-09-05 09:00:00 20.1 16 Nordeste 42 Este 0 -- -- 79
2020-09-05 08:00:00 19.5 12 Nordeste 34 Este 0 -- -- 82
2020-09-05 07:00:00 19.4 6 Norte 16 Noroeste 0 -- -- 82
2020-09-05 06:00:00 19.5 7 Este 29 Este 0 -- -- 82
2020-09-05 05:00:00 19.7 13 Este 37 Nordeste 0 -- -- 84
2020-09-05 04:00:00 19.5 15 Nordeste 32 Norte 0 -- -- 86
2020-09-05 03:00:00 19.4 9 Norte 23 Norte 0 -- -- 87
2020-09-05 02:00:00 19.1 8 Norte 18 Nordeste 0 -- -- 87
2020-09-05 01:00:00 19.6 10 Nordeste 23 Nordeste 0 -- -- 84
2020-09-05 00:00:00 18.7 6 Nordeste 13 Norte 0 -- -- 90
2020-09-04 23:00:00 18 2 Noroeste 19 Nordeste 0 -- -- 92
2020-09-04 22:00:00 18.1 2 Oeste 7 Noroeste 0 -- -- 92
2020-09-04 21:00:00 19.5 2 Oeste 13 Sudoeste 0 -- -- 87
2020-09-04 20:00:00 21 12 Oeste 19 Oeste 0 -- -- 83
2020-09-04 19:00:00 23.1 8 Noroeste 15 Sudoeste 0 -- -- 73
2020-09-04 18:00:00 21.9 9 Oeste 20 Oeste 0 -- -- 78
2020-09-04 17:00:00 21.3 11 Oeste 26 Noroeste 0 -- -- 79
2020-09-04 16:00:00 20 20 Noroeste 31 Noroeste 0 -- -- 85
2020-09-04 15:00:00 24.9 10 Oeste 21 Sudoeste 0 -- -- 62
2020-09-04 14:00:00 23.3 11 Noroeste 17 Oeste 0 -- -- 69
2020-09-04 13:00:00 23.2 13 Noroeste 20 Oeste 0 -- -- 68
2020-09-04 12:00:00 22.2 9 Oeste 13 Noroeste 0 -- -- 70
2020-09-04 11:00:00 23 3 Noroeste 6 Noroeste 0 -- -- 68
2020-09-04 10:00:00 20.3 3 Este 5 Sudeste 0 -- -- 76
2020-09-04 09:00:00 16.6 3 Sudeste 6 Este 0 -- -- 89
2020-09-04 08:00:00 16.1 5 Sudeste 6 Sur 0 -- -- 88
2020-09-04 07:00:00 16.8 3 Este 6 Oeste 0 -- -- 86
2020-09-04 06:00:00 18 3 Sudoeste 7 Sudeste 0 -- -- 80
2020-09-04 05:00:00 18 5 Sudeste 8 Sudeste 0 -- -- 85
2020-09-04 04:00:00 18.7 6 Este 9 Este 0 -- -- 84
2020-09-04 03:00:00 19.1 6 Este 13 Sudeste 0 -- -- 84
2020-09-04 02:00:00 19.1 4 Este 5 Sudeste 0 -- -- 80
2020-09-04 01:00:00 19.9 3 Sudeste 6 Este 0 -- -- 73
2020-09-04 00:00:00 20.3 2 Norte 9 Sur 0 -- -- 67
2020-09-03 23:00:00 21.9 7 Sur 9 Sur 0 -- -- 58
2020-09-03 22:00:00 23.5 3 Sudeste 9 Sur 0 -- -- 53
2020-09-03 21:00:00 26.8 6 Sur 11 Sudoeste 0 -- -- 52
2020-09-03 20:00:00 29 8 Sudoeste 12 Sudoeste 0 -- -- 44
2020-09-03 19:00:00 29.9 8 Sudoeste 13 Oeste 0 -- -- 42
2020-09-03 18:00:00 30.6 9 Oeste 14 Noroeste 0 -- -- 44
2020-09-03 17:00:00 30.3 9 Noroeste 13 Oeste 0 -- -- 40
2020-09-03 16:00:00 29.3 10 Noroeste 13 Oeste 0 -- -- 43
2020-09-03 15:00:00 28.9 8 Noroeste 12 Noroeste 0 -- -- 50
2020-09-03 14:00:00 27.5 8 Oeste 11 Noroeste 0 -- -- 57
2020-09-03 13:00:00 26.1 6 Noroeste 10 Norte 0 -- -- 61
2020-09-03 12:00:00 25.4 4 Este 8 Este 0 -- -- 64
2020-09-03 11:00:00 22.4 3 Este 6 Nordeste 0 -- -- 69
2020-09-03 10:00:00 19.5 4 Este 10 Sudeste 0 -- -- 79
2020-09-03 09:00:00 16.5 6 Sudeste 16 Sudeste 0 -- -- 90
2020-09-03 08:00:00 15.4 8 Sudeste 15 Sudeste 0 -- -- 93
2020-09-03 07:00:00 15.2 6 Este 9 Sudeste 0 -- -- 93
2020-09-03 06:00:00 15.6 5 Sudeste 9 Sudeste 0 -- -- 93
2020-09-03 05:00:00 15.7 4 Sudeste 6 Sudeste 0 -- -- 91
2020-09-03 04:00:00 16.1 4 Este 6 Sudeste 0 -- -- 90
2020-09-03 03:00:00 17.1 4 Este 8 Sudeste 0 -- -- 86
2020-09-03 02:00:00 18 3 Este 8 Sudeste 0 -- -- 83
2020-09-03 01:00:00 18.9 2 Sudeste 15 Norte 0 -- -- 79
2020-09-03 00:00:00 19.8 9 Norte 16 Norte 0 -- -- 76
2020-09-02 23:00:00 20.7 5 Norte 13 Norte 0 -- -- 74
2020-09-02 22:00:00 21.3 9 Norte 19 Nordeste 0 -- -- 74
2020-09-02 21:00:00 23.2 7 Norte 30 Nordeste 0 -- -- 68
2020-09-02 20:00:00 25.6 14 Nordeste 28 Nordeste 0 -- -- 61
2020-09-02 19:00:00 27.4 14 Norte 23 Norte 0 -- -- 52
2020-09-02 18:00:00 28.4 10 Nordeste 22 Nordeste 0 -- -- 48
2020-09-02 17:00:00 28 12 Norte 23 Nordeste 0 -- -- 49
2020-09-02 16:00:00 26.9 13 Norte 26 Norte 0 -- -- 53
2020-09-02 15:00:00 25.8 14 Norte 26 Norte 0 -- -- 56
2020-09-02 14:00:00 24.3 14 Norte 25 Norte 0 -- -- 57
2020-09-02 13:00:00 23.3 10 Norte 22 Este 0 -- -- 60
2020-09-02 12:00:00 23.1 11 Este 26 Este 0 -- -- 56
2020-09-02 11:00:00 20.5 13 Este 29 Nordeste 0 -- -- 64
2020-09-02 10:00:00 17.9 13 Nordeste 23 Nordeste 0 -- -- 74
2020-09-02 09:00:00 16.4 8 Nordeste 35 Nordeste 0 -- -- 79
2020-09-02 08:00:00 15.4 9 Nordeste 28 Nordeste 0 -- -- 83
2020-09-02 07:00:00 15.4 13 Nordeste 31 Nordeste 0 -- -- 82
2020-09-02 06:00:00 15.8 11 Nordeste 30 Nordeste 0 -- -- 81
2020-09-02 05:00:00 16 15 Norte 31 Norte 0 -- -- 82
2020-09-02 04:00:00 16.3 14 Norte 27 Norte 0 -- -- 82
2020-09-02 03:00:00 16.8 9 Norte 30 Este 0 -- -- 82
2020-09-02 02:00:00 17.1 12 Nordeste 26 Norte 0 -- -- 80
2020-09-02 01:00:00 17.7 12 Nordeste 27 Nordeste 0 -- -- 77
2020-09-02 00:00:00 18.3 13 Norte 32 Nordeste 0 -- -- 76
2020-09-01 23:00:00 18.7 14 Norte 33 Norte 0 -- -- 77
2020-09-01 22:00:00 19.5 12 Nordeste 32 Norte 0 -- -- 73
2020-09-01 21:00:00 21.2 6 Norte 33 Norte 0 -- -- 67
2020-09-01 20:00:00 23 17 Norte 32 Norte 0 -- -- 61
2020-09-01 19:00:00 24.7 15 Norte 30 Norte 0 -- -- 57
2020-09-01 18:00:00 25.8 15 Norte 25 Norte 0 -- -- 50
2020-09-01 17:00:00 25.7 9 Norte 20 Norte 0 -- -- 48
2020-09-01 16:00:00 25.3 11 Noroeste 23 Norte 0 -- -- 52
2020-09-01 15:00:00 25.2 12 Nordeste 24 Norte 0 -- -- 50
2020-09-01 14:00:00 24 9 Nordeste 23 Nordeste 0 -- -- 55
2020-09-01 13:00:00 23.1 8 Nordeste 20 Nordeste 0 -- -- 57
2020-09-01 12:00:00 20.9 11 Nordeste 25 Nordeste 0 -- -- 66
2020-09-01 11:00:00 19.9 12 Nordeste 23 Nordeste 0 -- -- 74
2020-09-01 10:00:00 16.4 3 Noroeste 10 Norte 0 -- -- 87
2020-09-01 09:00:00 14.6 2 Noroeste 6 Sur 0 -- -- 94
2020-09-01 08:00:00 13.9 2 Sudoeste 7 Oeste 0 -- -- 94
2020-09-01 07:00:00 14.3 3 Oeste 8 Sudoeste 0 -- -- 92
2020-09-01 06:00:00 15.1 4 Oeste 7 Oeste 0 -- -- 90
2020-09-01 05:00:00 14.5 4 Sur 8 Este 0 -- -- 87
2020-09-01 04:00:00 15.6 3 Sudoeste 10 Nordeste 0 -- -- 84
2020-09-01 03:00:00 16.9 4 Sur 18 Noroeste 0 -- -- 80
2020-09-01 02:00:00 16.2 3 Noroeste 8 Sudeste 0 -- -- 78
2020-09-01 01:00:00 16 3 Sudoeste 9 Sudeste 0 -- -- 76
2020-09-01 00:00:00 15.7 5 Este 9 Este 0 -- -- 78
2020-08-31 23:00:00 16.8 2 Oeste 10 Sudeste 0 -- -- 77
2020-08-31 22:00:00 17.4 6 Este 15 Sudoeste 0 -- -- 73
2020-08-31 21:00:00 18.2 11 Sudoeste 19 Sudoeste 0 -- -- 74
2020-08-31 20:00:00 21.1 9 Sudoeste 14 Sudoeste 0 -- -- 47
2020-08-31 19:00:00 22 10 Sudoeste 17 Sudoeste 0 -- -- 41
2020-08-31 18:00:00 22.9 10 Sudoeste 16 Oeste 0 -- -- 41
2020-08-31 17:00:00 23.4 7 Sudoeste 18 Oeste 0 -- -- 42
2020-08-31 16:00:00 22.8 10 Oeste 19 Noroeste 0 -- -- 47
2020-08-31 15:00:00 22 10 Sudoeste 18 Oeste 0 -- -- 47
2020-08-31 14:00:00 21.3 9 Sudoeste 18 Noroeste 0 -- -- 52
2020-08-31 13:00:00 19.3 10 Noroeste 17 Oeste 0 -- -- 64
2020-08-31 12:00:00 19.5 4 Noroeste 8 Norte 0 -- -- 65
2020-08-31 11:00:00 17.9 4 Sudeste 12 Sudeste 0 -- -- 67
2020-08-31 10:00:00 15.5 3 Este 6 Nordeste 0 -- -- 76
2020-08-31 09:00:00 12.4 5 Sudeste 15 Sudeste 0 -- -- 87
2020-08-31 08:00:00 10.9 7 Sudeste 12 Sudeste 0 -- -- 91
2020-08-31 07:00:00 11.2 4 Este 13 Sudeste 0 -- -- 90
2020-08-31 06:00:00 11.3 4 Sudeste 8 Sudeste 0 -- -- 87
2020-08-31 05:00:00 12 0 Calma 5 Oeste 0 -- -- 85
2020-08-31 04:00:00 13.7 3 Oeste 5 Noroeste 0 -- -- 78
2020-08-31 03:00:00 14.6 3 Noroeste 17 Nordeste 0 -- -- 74
2020-08-31 02:00:00 14.7 7 Noroeste 14 Este 0 -- -- 73
2020-08-31 01:00:00 15.8 3 Norte 13 Este 0 -- -- 68
2020-08-31 00:00:00 16.6 5 Este 21 Norte 0 -- -- 65
2020-08-30 23:00:00 17.1 6 Nordeste 26 Nordeste 0 -- -- 68
2020-08-30 22:00:00 17.8 9 Nordeste 23 Noroeste 0 -- -- 67
2020-08-30 21:00:00 19.3 13 Norte 29 Nordeste 0 -- -- 62
2020-08-30 20:00:00 20.8 16 Nordeste 33 Norte 0 -- -- 58
2020-08-30 19:00:00 21.9 14 Nordeste 35 Nordeste 0 -- -- 55
2020-08-30 18:00:00 22.5 14 Nordeste 33 Norte 0 -- -- 50
2020-08-30 17:00:00 22.6 16 Nordeste 32 Nordeste 0 -- -- 49
2020-08-30 16:00:00 22.2 15 Norte 30 Nordeste 0 -- -- 51
2020-08-30 15:00:00 21 16 Norte 30 Norte 0 -- -- 56
2020-08-30 14:00:00 21.5 13 Nordeste 33 Nordeste 0 -- -- 50
2020-08-30 13:00:00 20.7 18 Este 32 Este 0 -- -- 51
2020-08-30 12:00:00 19.2 11 Nordeste 26 Nordeste 0 -- -- 63
2020-08-30 11:00:00 16.4 10 Noroeste 15 Noroeste 0 -- -- 78
2020-08-30 10:00:00 13.7 8 Norte 17 Norte 0 -- -- 91
2020-08-30 09:00:00 12.3 6 Noroeste 11 Noroeste 0 -- -- 95
2020-08-30 08:00:00 12 3 Norte 7 Noroeste 0 -- -- 95
2020-08-30 07:00:00 12.4 2 Noroeste 10 Nordeste 0 -- -- 93
2020-08-30 06:00:00 12.8 4 Norte 10 Norte 0 -- -- 94
2020-08-30 05:00:00 12.8 4 Sur 9 Sur 0 -- -- 89
2020-08-30 04:00:00 13.5 4 Sur 17 Nordeste 0 -- -- 86
2020-08-30 03:00:00 14.5 9 Nordeste 15 Nordeste 0 -- -- 83
2020-08-30 02:00:00 15.1 5 Norte 22 Nordeste 0 -- -- 80
2020-08-30 01:00:00 15.3 9 Nordeste 21 Nordeste 0 -- -- 79
2020-08-30 00:00:00 15.7 9 Nordeste 17 Nordeste 0 -- -- 77
2020-08-29 23:00:00 16.5 8 Norte 22 Nordeste 0 -- -- 74
2020-08-29 22:00:00 17.2 10 Nordeste 21 Norte 0 -- -- 68
2020-08-29 21:00:00 18.7 10 Nordeste 24 Norte 0 -- -- 64
2020-08-29 20:00:00 20.3 16 Norte 30 Norte 0 -- -- 59
2020-08-29 19:00:00 21 18 Norte 32 Norte 0 -- -- 56
2020-08-29 18:00:00 21.4 17 Nordeste 32 Norte 0 -- -- 57
2020-08-29 17:00:00 20.7 18 Nordeste 35 Nordeste 0 -- -- 64
2020-08-29 16:00:00 19.2 19 Norte 43 Norte 0 -- -- 69
2020-08-29 15:00:00 21.4 16 Norte 30 Norte 0 -- -- 56
2020-08-29 14:00:00 20.7 14 Nordeste 32 Nordeste 0 -- -- 60
2020-08-29 13:00:00 19.7 12 Norte 26 Nordeste 0.2 -- -- 71
2020-08-29 12:00:00 18.4 6 Norte 23 Nordeste 0 -- -- 80
2020-08-29 11:00:00 18.3 8 Nordeste 18 Nordeste 0 -- -- 80
2020-08-29 10:00:00 16.7 4 Este 6 Este 0 -- -- 92
2020-08-29 09:00:00 13.9 0 Calma 7 Sur 0 -- -- 100
2020-08-29 08:00:00 13.7 3 Noroeste 7 Noroeste 0 -- -- 98
2020-08-29 07:00:00 13.8 5 Sur 7 Sur 0 -- -- 98
2020-08-29 06:00:00 14.6 5 Sur 7 Sur 0 -- -- 96
2020-08-29 05:00:00 15.3 6 Norte 12 Norte 1.2 -- -- 96
2020-08-29 04:00:00 14.7 4 Sur 6 Este 0 -- -- 93
2020-08-29 03:00:00 15.4 4 Sur 11 Noroeste 0 -- -- 89
2020-08-29 02:00:00 16.4 8 Noroeste 14 Noroeste 0 -- -- 85
2020-08-29 01:00:00 17.1 8 Noroeste 16 Noroeste 0 -- -- 81
2020-08-29 00:00:00 17.7 6 Norte 12 Norte 0 -- -- 74
2020-08-28 23:00:00 17.7 6 Norte 12 Norte 0 -- -- 73
2020-08-28 22:00:00 18 8 Norte 23 Noroeste 0 -- -- 71
2020-08-28 21:00:00 19.2 12 Noroeste 25 Noroeste 0 -- -- 64
2020-08-28 20:00:00 20.7 17 Noroeste 32 Noroeste 0 -- -- 60
2020-08-28 19:00:00 21.4 15 Noroeste 31 Norte 0 -- -- 61
2020-08-28 18:00:00 21.6 22 Noroeste 41 Noroeste 0 -- -- 60
2020-08-28 17:00:00 21.6 14 Noroeste 28 Noroeste 0 -- -- 59
2020-08-28 16:00:00 21.4 17 Noroeste 28 Noroeste 0 -- -- 58
2020-08-28 15:00:00 21.5 11 Oeste 26 Noroeste 0 -- -- 59
2020-08-28 14:00:00 20.1 14 Noroeste 28 Noroeste 0 -- -- 67
2020-08-28 13:00:00 20.5 10 Oeste 19 Oeste 0 -- -- 69
2020-08-28 12:00:00 20.1 6 Noroeste 17 Oeste 0 -- -- 71
2020-08-28 11:00:00 18.9 7 Noroeste 12 Noroeste 0 -- -- 78
2020-08-28 10:00:00 17.7 0 Calma 5 Nordeste 0 -- -- 82
2020-08-28 09:00:00 15.2 2 Sur 7 Sur 0 -- -- 96
2020-08-28 08:00:00 14.5 3 Sur 7 Este 0 -- -- 94
2020-08-28 07:00:00 15.8 0 Calma 7 Norte 0 -- -- 92
2020-08-28 06:00:00 16 0 Calma 9 Nordeste 0 -- -- 85
2020-08-28 05:00:00 16.8 6 Nordeste 14 Norte 0 -- -- 80
2020-08-28 04:00:00 17.9 9 Norte 22 Norte 0 -- -- 85
2020-08-28 03:00:00 18.8 8 Noroeste 14 Noroeste 0 -- -- 89
2020-08-28 02:00:00 19.5 6 Noroeste 17 Norte 0 -- -- 91
2020-08-28 01:00:00 19.7 10 Noroeste 19 Noroeste 0 -- -- 96
2020-08-28 00:00:00 20.4 6 Sudoeste 13 Sudoeste 0 -- -- 99
2020-08-27 23:00:00 20.3 10 Sudoeste 15 Sudoeste 0.2 -- -- 99
2020-08-27 22:00:00 20.6 9 Oeste 16 Sudoeste 0 -- -- 98
2020-08-27 21:00:00 21.2 7 Oeste 22 Sudoeste 0 -- -- 96
2020-08-27 20:00:00 22.1 9 Sudoeste 18 Sudoeste 0 -- -- 90
2020-08-27 19:00:00 22.1 12 Sudoeste 22 Oeste 0 -- -- 90
2020-08-27 18:00:00 22.6 14 Sudoeste 23 Sudoeste 0 -- -- 88
2020-08-27 17:00:00 23.3 12 Oeste 23 Oeste 0 -- -- 84
2020-08-27 16:00:00 23.4 14 Sudoeste 25 Sudoeste 0 -- -- 83
2020-08-27 15:00:00 23.4 9 Oeste 21 Sudoeste 0 -- -- 82
2020-08-27 14:00:00 22 14 Sudoeste 22 Oeste 0 -- -- 91
2020-08-27 13:00:00 22.8 10 Oeste 18 Sudoeste 0 -- -- 85
2020-08-27 12:00:00 22.1 10 Oeste 17 Noroeste 0 -- -- 89
2020-08-27 11:00:00 21.3 5 Oeste 10 Oeste 0 -- -- 95
2020-08-27 10:00:00 20.5 9 Noroeste 11 Noroeste 0 -- -- 96
2020-08-27 09:00:00 20 4 Sudoeste 8 Noroeste 0 -- -- 98
2020-08-27 08:00:00 19.8 4 Sudeste 7 Sudeste 0 -- -- 98
2020-08-27 07:00:00 19.8 0 Calma 9 Sudoeste 0 -- -- 98
2020-08-27 06:00:00 20 6 Sur 10 Oeste 0 -- -- 98
2020-08-27 05:00:00 20 4 Oeste 7 Sudoeste 0 -- -- 98
2020-08-27 04:00:00 20.2 4 Sudoeste 8 Sur 0 -- -- 98
2020-08-27 03:00:00 20.3 4 Sur 11 Sur 0 -- -- 98
2020-08-27 02:00:00 20.2 6 Sur 14 Sudoeste 0 -- -- 98
2020-08-27 01:00:00 20.4 4 Sudeste 13 Sur 0 -- -- 97
2020-08-27 00:00:00 20.8 7 Sur 12 Sur 0 -- -- 95
2020-08-26 23:00:00 21.2 6 Sur 14 Sudeste 0 -- -- 94
2020-08-26 22:00:00 21.8 5 Sur 17 Sur 0 -- -- 91
2020-08-26 21:00:00 23 5 Sur 22 Sur 0 -- -- 85
2020-08-26 20:00:00 23.4 14 Sudoeste 32 Sudoeste 0 -- -- 84
2020-08-26 19:00:00 24.3 18 Sudoeste 29 Sudoeste 0 -- -- 82
2020-08-26 18:00:00 25.4 17 Sudoeste 25 Sudoeste 0 -- -- 78
2020-08-26 17:00:00 26.1 14 Sudoeste 26 Sudoeste 0 -- -- 75
2020-08-26 16:00:00 26.2 15 Oeste 27 Sudoeste 0 -- -- 74
2020-08-26 15:00:00 26.1 14 Sudoeste 22 Sudoeste 0 -- -- 75
2020-08-26 14:00:00 26.4 13 Noroeste 18 Oeste 0 -- -- 74
2020-08-26 13:00:00 24.5 7 Noroeste 13 Oeste 0 -- -- 78
2020-08-26 12:00:00 23.4 9 Noroeste 12 Oeste 0 -- -- 81
2020-08-26 11:00:00 22.2 2 Noroeste 8 Noroeste 0 -- -- 87
2020-08-26 10:00:00 19.9 0 Calma 5 Noroeste 0 -- -- 98
2020-08-26 09:00:00 18.7 3 Oeste 6 Oeste 0 -- -- 99
2020-08-26 08:00:00 17.9 3 Sudeste 8 Este 0 -- -- 99
2020-08-26 07:00:00 18 6 Sudeste 10 Sudeste 0 -- -- 99
2020-08-26 06:00:00 18.2 2 Sudeste 4 Sudeste 0 -- -- 97
2020-08-26 05:00:00 18.5 3 Sudeste 4 Noroeste 0 -- -- 98
2020-08-26 04:00:00 18.9 2 Nordeste 9 Oeste 0 -- -- 97
2020-08-26 03:00:00 19 3 Sudeste 5 Sur 0 -- -- 96
2020-08-26 02:00:00 19.6 0 Calma 5 Oeste 0 -- -- 94
2020-08-26 01:00:00 19.8 4 Este 6 Este 0 -- -- 94
2020-08-26 00:00:00 20.6 3 Sudeste 8 Oeste 0 -- -- 92
2020-08-25 23:00:00 21.4 4 Oeste 12 Oeste 0 -- -- 90
2020-08-25 22:00:00 22 7 Oeste 13 Oeste 0 -- -- 86
2020-08-25 21:00:00 22.4 7 Oeste 18 Oeste 0 -- -- 84
2020-08-25 20:00:00 23.2 8 Oeste 18 Sudoeste 0 -- -- 80
2020-08-25 19:00:00 23.9 9 Oeste 18 Noroeste 0 -- -- 76
2020-08-25 18:00:00 23.7 8 Sudoeste 17 Oeste 0 -- -- 79
2020-08-25 17:00:00 23.5 8 Oeste 15 Oeste 0 -- -- 79
2020-08-25 16:00:00 23.1 12 Oeste 22 Noroeste 0 -- -- 80
2020-08-25 15:00:00 23.9 11 Sudoeste 18 Noroeste 0 -- -- 75
2020-08-25 14:00:00 22.7 5 Noroeste 12 Noroeste 0 -- -- 80
2020-08-25 13:00:00 20.9 7 Noroeste 15 Noroeste 0 -- -- 83
2020-08-25 12:00:00 20.6 8 Noroeste 17 Sudeste 0 -- -- 83
2020-08-25 11:00:00 19.4 10 Sudeste 15 Sudeste 0 -- -- 86
2020-08-25 10:00:00 18 6 Este 12 Sudeste 0 -- -- 92
2020-08-25 09:00:00 16.9 3 Sudeste 5 Sudeste 0 -- -- 95
2020-08-25 08:00:00 16 3 Este 6 Sudeste 0 -- -- 97
2020-08-25 07:00:00 15.5 4 Este 6 Sudeste 0 -- -- 97
2020-08-25 06:00:00 15.6 3 Este 6 Sudeste 0 -- -- 96
2020-08-25 05:00:00 15.6 3 Este 8 Sudeste 0 -- -- 95
2020-08-25 04:00:00 15.9 5 Sudeste 9 Este 0 -- -- 94
2020-08-25 03:00:00 16.2 3 Sudeste 6 Sudeste 0 -- -- 92
2020-08-25 02:00:00 16.8 3 Sudeste 6 Este 0 -- -- 90
2020-08-25 01:00:00 17.7 4 Sudeste 8 Sur 0 -- -- 85
2020-08-25 00:00:00 18.8 6 Sur 11 Sur 0 -- -- 81
2020-08-24 23:00:00 20.1 6 Sudeste 16 Sur 0 -- -- 77
2020-08-24 22:00:00 22.2 2 Nordeste 12 Sur 0 -- -- 63
2020-08-24 21:00:00 24.6 4 Sudeste 15 Sur 0 -- -- 54
2020-08-24 20:00:00 26.4 9 Sudoeste 21 Sudoeste 0 -- -- 50
2020-08-24 19:00:00 27.4 14 Sudoeste 22 Sudoeste 0 -- -- 46
2020-08-24 18:00:00 28.3 12 Sudoeste 19 Oeste 0 -- -- 46
2020-08-24 17:00:00 29.2 9 Sudoeste 17 Noroeste 0 -- -- 44
2020-08-24 16:00:00 28.3 9 Oeste 16 Noroeste 0 -- -- 50
2020-08-24 15:00:00 27.8 9 Oeste 15 Noroeste 0 -- -- 57
2020-08-24 14:00:00 25.9 8 Norte 17 Noroeste 0 -- -- 62
2020-08-24 13:00:00 24.6 8 Norte 20 Norte 0 -- -- 65
2020-08-24 12:00:00 22.7 8 Norte 14 Norte 0 -- -- 68
2020-08-24 11:00:00 20.4 8 Norte 16 Norte 0 -- -- 74
2020-08-24 10:00:00 18.5 7 Norte 19 Norte 0 -- -- 80
2020-08-24 09:00:00 16.8 5 Norte 18 Norte 0 -- -- 85
2020-08-24 08:00:00 16.4 12 Norte 22 Norte 0 -- -- 87
2020-08-24 07:00:00 16.7 14 Norte 28 Norte 0 -- -- 86
2020-08-24 06:00:00 17.1 14 Norte 27 Norte 0 -- -- 85
2020-08-24 05:00:00 17.4 12 Norte 23 Norte 0 -- -- 85
2020-08-24 04:00:00 18.1 12 Norte 22 Norte 0 -- -- 82
2020-08-24 03:00:00 18.8 6 Nordeste 22 Nordeste 0 -- -- 82
2020-08-24 02:00:00 19.3 11 Norte 20 Norte 0 -- -- 83
2020-08-24 01:00:00 20.4 4 Nordeste 13 Norte 0 -- -- 78
2020-08-24 00:00:00 21.4 9 Nordeste 27 Nordeste 0 -- -- 74
2020-08-23 23:00:00 21.7 10 Noroeste 30 Nordeste 0 -- -- 71
2020-08-23 22:00:00 22.5 9 Nordeste 21 Nordeste 0 -- -- 68
2020-08-23 21:00:00 24.1 10 Nordeste 30 Nordeste 0 -- -- 65
2020-08-23 20:00:00 26.9 17 Norte 28 Norte 0 -- -- 62
2020-08-23 19:00:00 28.2 13 Nordeste 25 Nordeste 0 -- -- 57
2020-08-23 18:00:00 28.9 13 Noroeste 19 Noroeste 0 -- -- 53
2020-08-23 17:00:00 28.3 12 Noroeste 18 Oeste 0 -- -- 54
2020-08-23 16:00:00 27.2 12 Noroeste 21 Oeste 0 -- -- 56
2020-08-23 15:00:00 27.2 13 Noroeste 19 Noroeste 0 -- -- 58
2020-08-23 14:00:00 25.7 10 Norte 17 Norte 0 -- -- 57
2020-08-23 13:00:00 24 8 Norte 16 Norte 0 -- -- 66
2020-08-23 12:00:00 22.1 5 Noroeste 11 Norte 0 -- -- 70
2020-08-23 11:00:00 20.6 4 Nordeste 11 Norte 0 -- -- 76
2020-08-23 10:00:00 18.1 4 Norte 9 Noroeste 0 -- -- 84
2020-08-23 09:00:00 15.8 0 Calma 6 Sur 0 -- -- 95
2020-08-23 08:00:00 14.8 2 Sudeste 10 Sudeste 0 -- -- 96
2020-08-23 07:00:00 14.6 6 Este 9 Sudeste 0 -- -- 96
2020-08-23 06:00:00 15.3 0 Calma 5 Sur 0 -- -- 94
2020-08-23 05:00:00 15.5 4 Este 5 Sur 0 -- -- 93
2020-08-23 04:00:00 16.4 4 Este 13 Norte 0 -- -- 89
2020-08-23 03:00:00 17.3 2 Sudoeste 8 Norte 0 -- -- 85
2020-08-23 02:00:00 18.1 5 Norte 11 Norte 0 -- -- 81
2020-08-23 01:00:00 18.9 3 Sudoeste 13 Nordeste 0 -- -- 79
2020-08-23 00:00:00 19.4 5 Norte 18 Nordeste 0 -- -- 79
2020-08-22 23:00:00 19.6 6 Nordeste 13 Norte 0 -- -- 78
2020-08-22 22:00:00 21 6 Este 17 Noroeste 0 -- -- 78
2020-08-22 21:00:00 22.4 8 Oeste 16 Sudoeste 0 -- -- 73
2020-08-22 20:00:00 23.8 9 Oeste 18 Oeste 0 -- -- 64
2020-08-22 19:00:00 24.1 10 Oeste 22 Oeste 0 -- -- 60
2020-08-22 18:00:00 23.8 17 Oeste 29 Noroeste 0 -- -- 62
2020-08-22 17:00:00 23.9 11 Oeste 25 Oeste 0 -- -- 62
2020-08-22 16:00:00 23.5 15 Oeste 24 Oeste 0 -- -- 65
2020-08-22 15:00:00 23.2 14 Oeste 23 Oeste 0 -- -- 63
2020-08-22 14:00:00 22.6 12 Oeste 18 Oeste 0 -- -- 62
2020-08-22 13:00:00 21.9 7 Noroeste 13 Noroeste 0 -- -- 65
2020-08-22 12:00:00 20.5 6 Oeste 10 Noroeste 0 -- -- 72
2020-08-22 11:00:00 19 5 Norte 8 Norte 0 -- -- 88
2020-08-22 10:00:00 18.8 4 Este 10 Este 0 -- -- 86
2020-08-22 09:00:00 16.1 8 Sudeste 12 Sudeste 0 -- -- 98
2020-08-22 08:00:00 15.1 5 Sudeste 7 Este 0 -- -- 99
2020-08-22 07:00:00 15.7 4 Sudeste 7 Sudeste 0 -- -- 99
2020-08-22 06:00:00 16.1 5 Sudeste 7 Sudeste 0 -- -- 98
2020-08-22 05:00:00 16.1 4 Sudeste 6 Este 0 -- -- 98
2020-08-22 04:00:00 16.7 3 Sur 8 Sudeste 0 -- -- 97
2020-08-22 03:00:00 17.1 4 Sudeste 6 Sudeste 0 -- -- 97
2020-08-22 02:00:00 16.7 4 Sudeste 5 Sudeste 0 -- -- 97
2020-08-22 01:00:00 16.7 5 Este 6 Este 0 -- -- 96
2020-08-22 00:00:00 17.2 4 Este 6 Este 0 -- -- 95